createdAt,value
2016-12-05T00:00:07.332Z,0
2016-12-05T00:01:07.310Z,0
2016-12-05T00:02:07.278Z,0
2016-12-05T00:03:07.266Z,0
2016-12-05T00:04:07.244Z,0
2016-12-05T00:05:07.225Z,0
2016-12-05T00:06:07.209Z,0
2016-12-05T00:07:07.182Z,0
2016-12-05T00:08:07.162Z,0
2016-12-05T00:09:07.141Z,0
2016-12-05T00:10:07.445Z,0
2016-12-05T00:11:07.109Z,0
2016-12-05T00:12:07.084Z,0
2016-12-05T00:13:07.061Z,0
2016-12-05T00:14:07.047Z,0
2016-12-05T00:15:07.023Z,0
2016-12-05T00:16:07.005Z,0
2016-12-05T00:17:06.981Z,0
2016-12-05T00:18:06.967Z,0
2016-12-05T00:19:06.947Z,0
2016-12-05T00:20:06.925Z,0
2016-12-05T00:21:07.219Z,0
2016-12-05T00:22:06.887Z,0
2016-12-05T00:23:06.869Z,0
2016-12-05T00:24:06.847Z,0
2016-12-05T00:25:06.829Z,0
2016-12-05T00:26:07.122Z,0
2016-12-05T00:27:06.790Z,0
2016-12-05T00:28:06.762Z,0
2016-12-05T00:29:06.741Z,0
2016-12-05T00:30:06.740Z,0
2016-12-05T00:31:06.706Z,0
2016-12-05T00:32:06.691Z,0
2016-12-05T00:33:06.665Z,0
2016-12-05T00:34:06.649Z,0
2016-12-05T00:35:06.628Z,0
2016-12-05T00:36:06.607Z,0
2016-12-05T00:37:06.586Z,0
2016-12-05T00:38:06.564Z,0
2016-12-05T00:39:06.546Z,0
2016-12-05T00:40:06.532Z,0
2016-12-05T00:41:06.506Z,0
2016-12-05T00:42:06.485Z,0
2016-12-05T00:43:06.469Z,0
2016-12-05T00:44:06.448Z,0
2016-12-05T00:45:06.429Z,0
2016-12-05T00:46:06.409Z,0
2016-12-05T00:47:06.385Z,0
2016-12-05T00:48:06.369Z,0
2016-12-05T00:49:06.349Z,0
2016-12-05T00:50:06.329Z,0
2016-12-05T00:51:06.310Z,0
2016-12-05T00:52:06.297Z,0
2016-12-05T00:53:06.270Z,0
2016-12-05T00:54:06.243Z,0
2016-12-05T00:55:06.230Z,0
2016-12-05T00:56:06.210Z,0
2016-12-05T00:57:06.187Z,0
2016-12-05T00:58:06.172Z,0
2016-12-05T00:59:06.145Z,0
2016-12-05T01:00:06.178Z,0
2016-12-05T01:01:06.107Z,0
2016-12-05T01:02:06.088Z,0
2016-12-05T01:03:06.075Z,0
2016-12-05T01:04:06.047Z,0
2016-12-05T01:05:06.028Z,0
2016-12-05T01:06:06.010Z,0
2016-12-05T01:07:05.991Z,0
2016-12-05T01:08:05.966Z,0
2016-12-05T01:09:05.950Z,0
2016-12-05T01:10:05.933Z,0
2016-12-05T01:11:05.909Z,0
2016-12-05T01:12:05.918Z,0
2016-12-05T01:13:06.185Z,0
2016-12-05T01:14:05.846Z,0
2016-12-05T01:15:05.827Z,0
2016-12-05T01:16:05.804Z,0
2016-12-05T01:17:05.794Z,0
2016-12-05T01:18:05.769Z,0
2016-12-05T01:19:05.747Z,0
2016-12-05T01:20:05.731Z,0
2016-12-05T01:21:05.715Z,0
2016-12-05T01:22:05.689Z,0
2016-12-05T01:23:05.671Z,0
2016-12-05T01:24:05.648Z,0
2016-12-05T01:25:05.637Z,0
2016-12-05T01:26:05.919Z,0
2016-12-05T01:27:05.909Z,0
2016-12-05T01:28:05.572Z,0
2016-12-05T01:29:05.547Z,0
2016-12-05T01:30:05.556Z,0
2016-12-05T01:31:05.515Z,0
2016-12-05T01:32:05.520Z,0
2016-12-05T01:33:05.467Z,0
2016-12-05T01:34:05.452Z,0
2016-12-05T01:35:05.429Z,0
2016-12-05T01:36:05.423Z,0
2016-12-05T01:37:05.388Z,0
2016-12-05T01:38:05.376Z,0
2016-12-05T01:39:05.358Z,0
2016-12-05T01:40:05.329Z,0
2016-12-05T01:41:05.308Z,0
2016-12-05T01:42:05.296Z,0
2016-12-05T01:43:05.276Z,0
2016-12-05T01:44:05.247Z,0
2016-12-05T01:45:05.232Z,0
2016-12-05T01:46:05.208Z,0
2016-12-05T01:47:05.190Z,0
2016-12-05T01:48:05.171Z,0
2016-12-05T01:49:05.148Z,0
2016-12-05T01:50:05.130Z,0
2016-12-05T01:51:05.113Z,0
2016-12-05T01:52:05.087Z,0
2016-12-05T01:53:05.064Z,0
2016-12-05T01:54:05.049Z,0
2016-12-05T01:55:05.344Z,0
2016-12-05T01:56:05.014Z,0
2016-12-05T01:57:04.990Z,0
2016-12-05T01:58:04.971Z,0
2016-12-05T01:59:04.979Z,0
2016-12-05T02:00:04.931Z,0
2016-12-05T02:01:04.909Z,0
2016-12-05T02:02:05.214Z,0
2016-12-05T02:03:04.871Z,0
2016-12-05T02:04:04.848Z,0
2016-12-05T02:05:04.826Z,0
2016-12-05T02:06:04.813Z,0
2016-12-05T02:07:04.789Z,0
2016-12-05T02:08:04.776Z,0
2016-12-05T02:09:04.750Z,0
2016-12-05T02:10:04.737Z,0
2016-12-05T02:11:04.708Z,0
2016-12-05T02:12:05.008Z,0
2016-12-05T02:13:04.668Z,0
2016-12-05T02:14:04.677Z,0
2016-12-05T02:15:04.629Z,0
2016-12-05T02:16:04.611Z,0
2016-12-05T02:17:04.585Z,0
2016-12-05T02:18:04.591Z,0
2016-12-05T02:19:04.549Z,0
2016-12-05T02:20:04.528Z,0
2016-12-05T02:21:04.822Z,0
2016-12-05T02:22:04.488Z,0
2016-12-05T02:23:04.466Z,0
2016-12-05T02:24:04.445Z,0
2016-12-05T02:25:04.432Z,0
2016-12-05T02:26:04.406Z,0
2016-12-05T02:27:04.395Z,0
2016-12-05T02:28:04.368Z,0
2016-12-05T02:29:04.349Z,0
2016-12-05T02:30:04.332Z,0
2016-12-05T02:31:04.309Z,0
2016-12-05T02:32:04.286Z,0
2016-12-05T02:33:04.286Z,0
2016-12-05T02:34:04.246Z,0
2016-12-05T02:35:04.223Z,0
2016-12-05T02:36:04.204Z,0
2016-12-05T02:37:04.186Z,0
2016-12-05T02:38:04.167Z,0
2016-12-05T02:39:04.146Z,0
2016-12-05T02:40:04.126Z,0
2016-12-05T02:41:04.136Z,0
2016-12-05T02:42:04.085Z,0
2016-12-05T02:43:04.062Z,0
2016-12-05T02:44:04.043Z,0
2016-12-05T02:45:04.029Z,0
2016-12-05T02:46:04.009Z,0
2016-12-05T02:47:03.987Z,0
2016-12-05T02:48:03.965Z,0
2016-12-05T02:49:03.941Z,0
2016-12-05T02:50:03.930Z,0
2016-12-05T02:51:03.914Z,0
2016-12-05T02:52:03.916Z,0
2016-12-05T02:53:03.872Z,0
2016-12-05T02:54:03.853Z,0
2016-12-05T02:55:03.832Z,0
2016-12-05T02:56:03.818Z,0
2016-12-05T02:57:03.793Z,0
2016-12-05T02:58:03.769Z,0
2016-12-05T02:59:03.755Z,0
2016-12-05T03:00:04.056Z,0
2016-12-05T03:01:03.715Z,0
2016-12-05T03:02:03.692Z,0
2016-12-05T03:03:03.672Z,0
2016-12-05T03:04:03.654Z,0
2016-12-05T03:05:03.630Z,0
2016-12-05T03:06:03.609Z,0
2016-12-05T03:07:03.600Z,0
2016-12-05T03:08:03.573Z,0
2016-12-05T03:09:03.555Z,0
2016-12-05T03:10:03.531Z,0
2016-12-05T03:11:03.829Z,0
2016-12-05T03:12:03.494Z,0
2016-12-05T03:13:03.476Z,0
2016-12-05T03:14:03.456Z,0
2016-12-05T03:15:03.429Z,0
2016-12-05T03:16:03.415Z,0
2016-12-05T03:17:03.396Z,0
2016-12-05T03:18:03.376Z,0
2016-12-05T03:19:03.354Z,0
2016-12-05T03:20:03.333Z,0
2016-12-05T03:21:03.344Z,0
2016-12-05T03:22:03.289Z,0
2016-12-05T03:23:03.272Z,0
2016-12-05T03:24:03.251Z,0
2016-12-05T03:25:03.544Z,0
2016-12-05T03:26:03.206Z,0
2016-12-05T03:27:03.195Z,0
2016-12-05T03:28:03.490Z,0
2016-12-05T03:29:03.149Z,0
2016-12-05T03:30:03.135Z,0
2016-12-05T03:31:03.113Z,0
2016-12-05T03:32:03.406Z,0
2016-12-05T03:33:03.070Z,0
2016-12-05T03:34:03.054Z,0
2016-12-05T03:35:03.031Z,0
2016-12-05T03:36:03.015Z,0
2016-12-05T03:37:03.627Z,0
2016-12-05T03:38:02.967Z,0
2016-12-05T03:39:02.954Z,0
2016-12-05T03:40:02.933Z,0
2016-12-05T03:41:02.910Z,0
2016-12-05T03:42:02.895Z,0
2016-12-05T03:43:02.870Z,0
2016-12-05T03:44:02.856Z,0
2016-12-05T03:45:02.839Z,0
2016-12-05T03:46:02.809Z,0
2016-12-05T03:47:02.796Z,0
2016-12-05T03:48:02.771Z,0
2016-12-05T03:49:02.754Z,0
2016-12-05T03:50:02.736Z,0
2016-12-05T03:51:02.711Z,0
2016-12-05T03:52:02.698Z,0
2016-12-05T03:53:02.669Z,0
2016-12-05T03:54:02.660Z,0
2016-12-05T03:55:02.627Z,0
2016-12-05T03:56:02.614Z,0
2016-12-05T03:57:02.594Z,0
2016-12-05T03:58:02.575Z,0
2016-12-05T03:59:02.558Z,0
2016-12-05T04:00:02.532Z,0
2016-12-05T04:01:02.517Z,0
2016-12-05T04:02:02.502Z,0
2016-12-05T04:03:02.475Z,0
2016-12-05T04:04:02.457Z,0
2016-12-05T04:05:02.434Z,0
2016-12-05T04:06:02.413Z,0
2016-12-05T04:07:02.719Z,0
2016-12-05T04:08:02.376Z,0
2016-12-05T04:09:02.360Z,0
2016-12-05T04:10:02.338Z,0
2016-12-05T04:11:02.318Z,0
2016-12-05T04:12:02.332Z,0
2016-12-05T04:13:02.277Z,0
2016-12-05T04:14:02.260Z,0
2016-12-05T04:15:02.239Z,0
2016-12-05T04:16:02.238Z,0
2016-12-05T04:17:02.198Z,0
2016-12-05T04:18:02.181Z,0
2016-12-05T04:19:02.159Z,0
2016-12-05T04:20:02.145Z,0
2016-12-05T04:21:02.122Z,0
2016-12-05T04:22:02.097Z,0
2016-12-05T04:23:02.083Z,0
2016-12-05T04:24:02.060Z,0
2016-12-05T04:25:02.044Z,0
2016-12-05T04:26:02.022Z,0
2016-12-05T04:27:02.001Z,0
2016-12-05T04:28:01.983Z,0
2016-12-05T04:29:01.967Z,0
2016-12-05T04:30:01.954Z,0
2016-12-05T04:31:01.921Z,0
2016-12-05T04:32:01.905Z,0
2016-12-05T04:33:01.885Z,0
2016-12-05T04:34:01.874Z,0
2016-12-05T04:35:01.853Z,0
2016-12-05T04:36:01.829Z,0
2016-12-05T04:37:01.815Z,0
2016-12-05T04:38:01.795Z,0
2016-12-05T04:39:01.775Z,0
2016-12-05T04:40:01.755Z,0
2016-12-05T04:41:01.737Z,0
2016-12-05T04:42:01.741Z,0
2016-12-05T04:43:01.697Z,0
2016-12-05T04:44:01.678Z,0
2016-12-05T04:45:01.659Z,0
2016-12-05T04:46:01.642Z,0
2016-12-05T04:47:01.622Z,0
2016-12-05T04:48:01.636Z,0
2016-12-05T04:49:01.585Z,0
2016-12-05T04:50:01.562Z,0
2016-12-05T04:51:01.551Z,0
2016-12-05T04:52:01.534Z,0
2016-12-05T04:53:01.512Z,0
2016-12-05T04:54:01.492Z,0
2016-12-05T04:55:01.789Z,0
2016-12-05T04:56:01.451Z,0
2016-12-05T04:57:01.439Z,0
2016-12-05T04:58:01.418Z,0
2016-12-05T04:59:01.417Z,0
2016-12-05T05:00:01.381Z,0
2016-12-05T05:01:01.677Z,0
2016-12-05T05:02:01.343Z,0
2016-12-05T05:03:01.330Z,0
2016-12-05T05:04:01.331Z,0
2016-12-05T05:05:01.288Z,0
2016-12-05T05:06:01.270Z,0
2016-12-05T05:07:01.250Z,0
2016-12-05T05:08:01.234Z,0
2016-12-05T05:09:01.220Z,0
2016-12-05T05:10:01.207Z,0
2016-12-05T05:11:01.178Z,0
2016-12-05T05:12:01.162Z,0
2016-12-05T05:13:01.148Z,0
2016-12-05T05:14:01.438Z,0
2016-12-05T05:15:01.109Z,0
2016-12-05T05:16:01.093Z,0
2016-12-05T05:17:01.065Z,0
2016-12-05T05:18:01.049Z,0
2016-12-05T05:19:01.056Z,0
2016-12-05T05:20:01.013Z,0
2016-12-05T05:21:00.998Z,0
2016-12-05T05:22:00.979Z,0
2016-12-05T05:23:00.961Z,0
2016-12-05T05:24:00.940Z,0
2016-12-05T05:25:00.924Z,0
2016-12-05T05:26:00.909Z,0
2016-12-05T05:27:00.886Z,0
2016-12-05T05:28:00.867Z,0
2016-12-05T05:29:00.858Z,0
2016-12-05T05:30:00.835Z,0
2016-12-05T05:31:00.817Z,0
2016-12-05T05:32:00.791Z,0
2016-12-05T05:33:00.778Z,0
2016-12-05T05:34:00.757Z,0
2016-12-05T05:35:00.743Z,0
2016-12-05T05:36:01.039Z,0
2016-12-05T05:37:00.702Z,0
2016-12-05T05:38:00.685Z,0
2016-12-05T05:39:00.671Z,0
2016-12-05T05:40:00.650Z,0
2016-12-05T05:41:00.631Z,0
2016-12-05T05:42:00.614Z,0
2016-12-05T05:43:00.591Z,0
2016-12-05T05:44:00.893Z,0
2016-12-05T05:45:00.560Z,0
2016-12-05T05:46:00.537Z,0
2016-12-05T05:47:00.523Z,0
2016-12-05T05:48:00.528Z,0
2016-12-05T05:49:00.483Z,0
2016-12-05T05:50:00.462Z,0
2016-12-05T05:51:00.445Z,0
2016-12-05T05:52:00.427Z,0
2016-12-05T05:53:00.412Z,0
2016-12-05T05:54:00.390Z,0
2016-12-05T05:55:00.379Z,0
2016-12-05T05:56:00.356Z,0
2016-12-05T05:57:00.336Z,0
2016-12-05T05:58:00.319Z,0
2016-12-05T05:59:00.300Z,0
2016-12-05T06:00:00.280Z,0
2016-12-05T06:01:00.261Z,0
2016-12-05T06:02:00.243Z,0
2016-12-05T06:03:00.227Z,0
2016-12-05T06:04:00.215Z,0
2016-12-05T06:05:00.189Z,0
2016-12-05T06:06:00.171Z,0
2016-12-05T06:07:00.149Z,0
2016-12-05T06:08:00.130Z,0
2016-12-05T06:09:00.112Z,0
2016-12-05T06:10:00.099Z,0
2016-12-05T06:11:00.080Z,0
2016-12-05T06:12:00.059Z,0
2016-12-05T06:13:00.045Z,0
2016-12-05T06:14:00.333Z,0
2016-12-05T06:15:00.006Z,0
2016-12-05T06:15:59.986Z,0
2016-12-05T06:16:59.969Z,0
2016-12-05T06:17:59.946Z,0
2016-12-05T06:18:59.927Z,0
2016-12-05T06:19:59.909Z,0
2016-12-05T06:20:59.892Z,0
2016-12-05T06:21:59.875Z,0
2016-12-05T06:22:59.848Z,0
2016-12-05T06:23:59.835Z,0
2016-12-05T06:24:59.812Z,0
2016-12-05T06:25:59.796Z,0
2016-12-05T06:26:59.780Z,0
2016-12-05T06:27:59.754Z,0
2016-12-05T06:28:59.736Z,0
2016-12-05T06:29:59.725Z,0
2016-12-05T06:30:59.699Z,0
2016-12-05T06:31:59.680Z,0
2016-12-05T06:32:59.661Z,0
2016-12-05T06:33:59.643Z,0
2016-12-05T06:34:59.623Z,0
2016-12-05T06:35:59.605Z,0
2016-12-05T06:36:59.582Z,0
2016-12-05T06:37:59.886Z,0
2016-12-05T06:38:59.547Z,0
2016-12-05T06:39:59.527Z,0
2016-12-05T06:40:59.510Z,0
2016-12-05T06:41:59.490Z,0
2016-12-05T06:42:59.469Z,0
2016-12-05T06:43:59.452Z,0
2016-12-05T06:44:59.437Z,0
2016-12-05T06:45:59.422Z,0
2016-12-05T06:46:59.395Z,0
2016-12-05T06:47:59.379Z,0
2016-12-05T06:48:59.355Z,0
2016-12-05T06:49:59.338Z,5
2016-12-05T06:50:59.318Z,5
2016-12-05T06:51:59.304Z,5
2016-12-05T06:52:59.280Z,5
2016-12-05T06:53:59.262Z,5
2016-12-05T06:54:59.358Z,5
2016-12-05T06:55:59.250Z,5
2016-12-05T06:56:59.203Z,5
2016-12-05T06:57:59.216Z,10
2016-12-05T06:58:59.165Z,10
2016-12-05T06:59:59.142Z,10
2016-12-05T07:00:59.125Z,10
2016-12-05T07:01:59.110Z,10
2016-12-05T07:02:59.112Z,10
2016-12-05T07:03:59.067Z,10
2016-12-05T07:04:59.046Z,15
2016-12-05T07:05:59.025Z,15
2016-12-05T07:06:59.006Z,15
2016-12-05T07:07:58.990Z,15
2016-12-05T07:08:58.967Z,15
2016-12-05T07:09:58.976Z,15
2016-12-05T07:10:58.928Z,20
2016-12-05T07:11:58.912Z,20
2016-12-05T07:12:58.890Z,20
2016-12-05T07:13:58.872Z,20
2016-12-05T07:14:58.849Z,20
2016-12-05T07:15:58.833Z,20
2016-12-05T07:16:58.817Z,25
2016-12-05T07:17:58.792Z,25
2016-12-05T07:18:58.777Z,25
2016-12-05T07:19:58.752Z,25
2016-12-05T07:20:58.731Z,25
2016-12-05T07:21:58.711Z,25
2016-12-05T07:22:58.692Z,30
2016-12-05T07:23:58.670Z,30
2016-12-05T07:24:58.677Z,30
2016-12-05T07:25:58.633Z,30
2016-12-05T07:26:58.948Z,30
2016-12-05T07:27:58.597Z,30
2016-12-05T07:28:58.576Z,35
2016-12-05T07:29:58.560Z,35
2016-12-05T07:30:58.534Z,35
2016-12-05T07:31:58.535Z,35
2016-12-05T07:32:58.498Z,35
2016-12-05T07:33:58.476Z,35
2016-12-05T07:34:58.659Z,40
2016-12-05T07:35:58.557Z,40
2016-12-05T07:36:58.634Z,40
2016-12-05T07:37:58.457Z,40
2016-12-05T07:38:58.696Z,40
2016-12-05T07:39:58.365Z,40
2016-12-05T07:40:58.341Z,40
2016-12-05T07:41:58.573Z,45
2016-12-05T07:42:58.447Z,45
2016-12-05T07:43:58.283Z,45
2016-12-05T07:44:58.262Z,45
2016-12-05T07:45:58.309Z,45
2016-12-05T07:46:58.249Z,45
2016-12-05T07:47:58.210Z,45
2016-12-05T07:48:58.184Z,45
2016-12-05T07:49:58.427Z,50
2016-12-05T07:50:58.183Z,50
2016-12-05T07:51:58.216Z,50
2016-12-05T07:52:58.314Z,50
2016-12-05T07:53:58.124Z,50
2016-12-05T07:54:58.264Z,50
2016-12-05T07:55:58.056Z,50
2016-12-05T07:56:58.055Z,50
2016-12-05T07:57:58.024Z,55
2016-12-05T07:58:57.985Z,55
2016-12-05T07:59:57.975Z,55
2016-12-05T08:00:58.090Z,55
2016-12-05T08:01:57.940Z,55
2016-12-05T08:02:57.945Z,55
2016-12-05T08:03:57.916Z,55
2016-12-05T08:04:57.871Z,55
2016-12-05T08:05:57.849Z,55
2016-12-05T08:06:57.827Z,55
2016-12-05T08:07:57.919Z,55
2016-12-05T08:08:58.078Z,60
2016-12-05T08:09:58.040Z,60
2016-12-05T08:10:58.225Z,60
2016-12-05T08:11:58.282Z,60
2016-12-05T08:12:57.715Z,60
2016-12-05T08:13:57.882Z,60
2016-12-05T08:14:57.670Z,60
2016-12-05T08:15:57.673Z,60
2016-12-05T08:16:57.633Z,60
2016-12-05T08:17:57.622Z,60
2016-12-05T08:18:57.804Z,60
2016-12-05T08:19:57.679Z,60
2016-12-05T08:20:57.557Z,65
2016-12-05T08:21:57.538Z,65
2016-12-05T08:22:57.834Z,65
2016-12-05T08:23:57.513Z,65
2016-12-05T08:24:57.481Z,65
2016-12-05T08:25:57.460Z,65
2016-12-05T08:26:57.439Z,65
2016-12-05T08:27:57.414Z,65
2016-12-05T08:28:57.403Z,65
2016-12-05T08:29:57.377Z,65
2016-12-05T08:30:57.382Z,65
2016-12-05T08:31:57.342Z,65
2016-12-05T08:32:57.319Z,65
2016-12-05T08:33:57.306Z,65
2016-12-05T08:34:57.287Z,65
2016-12-05T08:35:57.262Z,65
2016-12-05T08:36:57.246Z,70
2016-12-05T08:37:57.248Z,70
2016-12-05T08:38:57.208Z,70
2016-12-05T08:39:57.182Z,70
2016-12-05T08:40:57.166Z,70
2016-12-05T08:41:57.147Z,70
2016-12-05T08:42:57.127Z,70
2016-12-05T08:43:57.425Z,70
2016-12-05T08:44:57.407Z,70
2016-12-05T08:45:57.069Z,70
2016-12-05T08:46:57.051Z,70
2016-12-05T08:47:57.027Z,70
2016-12-05T08:48:57.017Z,70
2016-12-05T08:49:56.992Z,70
2016-12-05T08:50:56.977Z,70
2016-12-05T08:51:56.957Z,70
2016-12-05T08:52:56.938Z,70
2016-12-05T08:53:56.918Z,75
2016-12-05T08:54:56.922Z,75
2016-12-05T08:55:56.877Z,75
2016-12-05T08:56:56.856Z,75
2016-12-05T08:57:56.835Z,75
2016-12-05T08:58:56.819Z,75
2016-12-05T08:59:56.802Z,75
2016-12-05T09:00:56.784Z,75
2016-12-05T09:01:56.763Z,75
2016-12-05T09:02:56.741Z,75
2016-12-05T09:03:56.725Z,75
2016-12-05T09:04:56.704Z,75
2016-12-05T09:05:56.684Z,75
2016-12-05T09:06:56.671Z,75
2016-12-05T09:07:56.648Z,75
2016-12-05T09:08:56.629Z,75
2016-12-05T09:09:56.612Z,75
2016-12-05T09:10:56.593Z,75
2016-12-05T09:11:56.572Z,75
2016-12-05T09:12:56.550Z,75
2016-12-05T09:13:56.527Z,75
2016-12-05T09:14:56.516Z,75
2016-12-05T09:15:56.534Z,75
2016-12-05T09:16:56.474Z,75
2016-12-05T09:17:56.461Z,75
2016-12-05T09:18:56.440Z,75
2016-12-05T09:19:56.420Z,75
2016-12-05T09:20:56.426Z,75
2016-12-05T09:21:56.381Z,80
2016-12-05T09:22:56.685Z,80
2016-12-05T09:23:56.340Z,80
2016-12-05T09:24:56.323Z,80
2016-12-05T09:25:56.627Z,80
2016-12-05T09:26:56.292Z,80
2016-12-05T09:27:56.269Z,80
2016-12-05T09:28:56.249Z,80
2016-12-05T09:29:56.259Z,80
2016-12-05T09:30:56.216Z,80
2016-12-05T09:31:56.221Z,80
2016-12-05T09:32:56.200Z,80
2016-12-05T09:33:56.157Z,80
2016-12-05T09:34:56.139Z,80
2016-12-05T09:35:56.123Z,80
2016-12-05T09:36:56.105Z,80
2016-12-05T09:37:56.092Z,80
2016-12-05T09:38:56.067Z,80
2016-12-05T09:39:56.045Z,80
2016-12-05T09:40:56.030Z,80
2016-12-05T09:41:56.024Z,80
2016-12-05T09:42:56.001Z,80
2016-12-05T09:43:55.971Z,80
2016-12-05T09:44:55.953Z,80
2016-12-05T09:45:55.938Z,80
2016-12-05T09:46:55.918Z,80
2016-12-05T09:47:55.901Z,80
2016-12-05T09:48:55.883Z,80
2016-12-05T09:49:55.865Z,80
2016-12-05T09:50:55.847Z,80
2016-12-05T09:51:55.829Z,80
2016-12-05T09:52:56.128Z,80
2016-12-05T09:53:55.798Z,80
2016-12-05T09:54:55.782Z,80
2016-12-05T09:55:55.758Z,80
2016-12-05T09:56:55.744Z,80
2016-12-05T09:57:55.721Z,80
2016-12-05T09:58:55.707Z,80
2016-12-05T09:59:55.705Z,80
2016-12-05T10:00:55.667Z,80
2016-12-05T10:01:55.669Z,80
2016-12-05T10:02:55.631Z,80
2016-12-05T10:03:55.616Z,85
2016-12-05T10:04:55.597Z,85
2016-12-05T10:05:55.579Z,85
2016-12-05T10:06:55.568Z,85
2016-12-05T10:07:55.549Z,85
2016-12-05T10:08:55.522Z,85
2016-12-05T10:09:55.508Z,85
2016-12-05T10:10:55.489Z,85
2016-12-05T10:11:55.473Z,85
2016-12-05T10:12:55.457Z,85
2016-12-05T10:13:55.437Z,85
2016-12-05T10:14:55.419Z,85
2016-12-05T10:15:55.399Z,85
2016-12-05T10:16:55.382Z,85
2016-12-05T10:17:55.393Z,90
2016-12-05T10:18:55.344Z,90
2016-12-05T10:19:55.329Z,90
2016-12-05T10:20:55.315Z,90
2016-12-05T10:21:55.296Z,90
2016-12-05T10:22:55.276Z,90
2016-12-05T10:23:55.258Z,90
2016-12-05T10:24:55.241Z,90
2016-12-05T10:25:55.225Z,90
2016-12-05T10:26:55.205Z,90
2016-12-05T10:27:55.188Z,90
2016-12-05T10:28:55.169Z,90
2016-12-05T10:29:55.165Z,90
2016-12-05T10:30:55.140Z,90
2016-12-05T10:31:55.121Z,90
2016-12-05T10:32:55.101Z,90
2016-12-05T10:33:55.091Z,90
2016-12-05T10:34:55.069Z,90
2016-12-05T10:35:55.052Z,90
2016-12-05T10:36:55.032Z,90
2016-12-05T10:37:55.023Z,90
2016-12-05T10:38:55.025Z,90
2016-12-05T10:39:55.007Z,90
2016-12-05T10:40:54.969Z,90
2016-12-05T10:41:55.274Z,90
2016-12-05T10:42:54.937Z,90
2016-12-05T10:43:54.916Z,90
2016-12-05T10:44:54.902Z,90
2016-12-05T10:45:54.881Z,90
2016-12-05T10:46:54.865Z,90
2016-12-05T10:47:54.849Z,90
2016-12-05T10:48:54.826Z,90
2016-12-05T10:49:54.812Z,90
2016-12-05T10:50:55.111Z,90
2016-12-05T10:51:54.780Z,90
2016-12-05T10:52:54.810Z,90
2016-12-05T10:53:54.761Z,90
2016-12-05T10:54:54.762Z,90
2016-12-05T10:55:54.730Z,90
2016-12-05T10:56:54.697Z,90
2016-12-05T10:57:54.682Z,90
2016-12-05T10:58:54.671Z,90
2016-12-05T10:59:54.647Z,90
2016-12-05T11:00:54.631Z,90
2016-12-05T11:01:54.617Z,90
2016-12-05T11:02:54.601Z,90
2016-12-05T11:03:54.593Z,90
2016-12-05T11:04:54.563Z,90
2016-12-05T11:05:54.548Z,90
2016-12-05T11:06:54.602Z,90
2016-12-05T11:07:54.830Z,90
2016-12-05T11:08:54.499Z,90
2016-12-05T11:09:54.482Z,90
2016-12-05T11:10:54.465Z,90
2016-12-05T11:11:54.452Z,90
2016-12-05T11:12:54.437Z,90
2016-12-05T11:13:54.423Z,90
2016-12-05T11:14:54.404Z,90
2016-12-05T11:15:54.388Z,85
2016-12-05T11:16:54.370Z,85
2016-12-05T11:17:54.720Z,85
2016-12-05T11:18:54.359Z,85
2016-12-05T11:19:54.319Z,85
2016-12-05T11:20:54.309Z,85
2016-12-05T11:21:54.606Z,85
2016-12-05T11:22:54.274Z,85
2016-12-05T11:23:54.265Z,85
2016-12-05T11:24:54.239Z,85
2016-12-05T11:25:54.230Z,85
2016-12-05T11:26:54.214Z,85
2016-12-05T11:27:54.194Z,85
2016-12-05T11:28:54.202Z,85
2016-12-05T11:29:54.487Z,85
2016-12-05T11:30:54.496Z,85
2016-12-05T11:31:54.186Z,85
2016-12-05T11:32:54.114Z,85
2016-12-05T11:33:54.097Z,85
2016-12-05T11:34:54.080Z,85
2016-12-05T11:35:54.069Z,85
2016-12-05T11:36:54.368Z,85
2016-12-05T11:37:54.378Z,85
2016-12-05T11:38:54.381Z,85
2016-12-05T11:39:54.035Z,85
2016-12-05T11:40:53.989Z,85
2016-12-05T11:41:53.972Z,85
2016-12-05T11:42:53.955Z,85
2016-12-05T11:43:53.941Z,85
2016-12-05T11:44:53.926Z,85
2016-12-05T11:45:53.908Z,85
2016-12-05T11:46:54.216Z,85
2016-12-05T11:47:53.888Z,85
2016-12-05T11:48:53.861Z,85
2016-12-05T11:49:53.845Z,85
2016-12-05T11:50:53.833Z,85
2016-12-05T11:51:54.130Z,85
2016-12-05T11:52:53.839Z,85
2016-12-05T11:53:53.790Z,85
2016-12-05T11:54:53.768Z,85
2016-12-05T11:55:53.755Z,85
2016-12-05T11:56:53.737Z,85
2016-12-05T11:57:53.748Z,85
2016-12-05T11:58:54.021Z,85
2016-12-05T11:59:53.690Z,85
2016-12-05T12:00:53.671Z,85
2016-12-05T12:01:53.655Z,85
2016-12-05T12:02:53.646Z,85
2016-12-05T12:03:53.626Z,85
2016-12-05T12:04:53.612Z,85
2016-12-05T12:05:53.595Z,85
2016-12-05T12:06:53.579Z,85
2016-12-05T12:07:53.566Z,85
2016-12-05T12:08:53.878Z,85
2016-12-05T12:09:53.865Z,85
2016-12-05T12:10:53.519Z,85
2016-12-05T12:11:53.505Z,85
2016-12-05T12:12:53.490Z,85
2016-12-05T12:13:53.473Z,85
2016-12-05T12:14:53.489Z,85
2016-12-05T12:15:53.756Z,85
2016-12-05T12:16:53.426Z,85
2016-12-05T12:17:53.416Z,85
2016-12-05T12:18:53.397Z,85
2016-12-05T12:19:53.381Z,85
2016-12-05T12:20:53.368Z,80
2016-12-05T12:21:53.346Z,80
2016-12-05T12:22:53.331Z,80
2016-12-05T12:23:53.321Z,80
2016-12-05T12:24:53.300Z,80
2016-12-05T12:25:53.295Z,80
2016-12-05T12:26:53.278Z,80
2016-12-05T12:27:53.256Z,80
2016-12-05T12:28:53.242Z,80
2016-12-05T12:29:53.224Z,80
2016-12-05T12:30:53.210Z,80
2016-12-05T12:31:53.198Z,80
2016-12-05T12:32:53.178Z,80
2016-12-05T12:33:53.166Z,80
2016-12-05T12:34:53.146Z,80
2016-12-05T12:35:53.135Z,80
2016-12-05T12:36:53.119Z,80
2016-12-05T12:37:53.099Z,80
2016-12-05T12:38:53.089Z,80
2016-12-05T12:39:53.069Z,80
2016-12-05T12:40:53.058Z,80
2016-12-05T12:41:53.041Z,80
2016-12-05T12:42:53.023Z,80
2016-12-05T12:43:53.008Z,80
2016-12-05T12:44:52.995Z,80
2016-12-05T12:45:53.010Z,80
2016-12-05T12:46:52.966Z,75
2016-12-05T12:47:52.944Z,75
2016-12-05T12:48:52.936Z,75
2016-12-05T12:49:52.916Z,75
2016-12-05T12:50:52.911Z,75
2016-12-05T12:51:52.886Z,75
2016-12-05T12:52:52.871Z,75
2016-12-05T12:53:52.857Z,75
2016-12-05T12:54:52.840Z,75
2016-12-05T12:55:52.825Z,75
2016-12-05T12:56:52.812Z,75
2016-12-05T12:57:52.803Z,75
2016-12-05T12:58:52.782Z,75
2016-12-05T12:59:52.766Z,75
2016-12-05T13:00:53.062Z,75
2016-12-05T13:01:52.757Z,75
2016-12-05T13:02:52.716Z,75
2016-12-05T13:03:52.707Z,75
2016-12-05T13:04:52.681Z,75
2016-12-05T13:05:52.671Z,75
2016-12-05T13:06:52.651Z,75
2016-12-05T13:07:52.639Z,70
2016-12-05T13:08:52.629Z,70
2016-12-05T13:09:52.614Z,70
2016-12-05T13:10:52.590Z,70
2016-12-05T13:11:52.573Z,70
2016-12-05T13:12:52.562Z,70
2016-12-05T13:13:52.547Z,70
2016-12-05T13:14:52.844Z,70
2016-12-05T13:15:52.514Z,70
2016-12-05T13:16:52.496Z,70
2016-12-05T13:17:52.480Z,70
2016-12-05T13:18:52.794Z,70
2016-12-05T13:19:52.451Z,70
2016-12-05T13:20:52.438Z,70
2016-12-05T13:21:52.417Z,70
2016-12-05T13:22:52.404Z,70
2016-12-05T13:23:52.388Z,70
2016-12-05T13:24:52.376Z,65
2016-12-05T13:25:52.669Z,65
2016-12-05T13:26:52.343Z,65
2016-12-05T13:27:52.323Z,65
2016-12-05T13:28:52.317Z,65
2016-12-05T13:29:52.346Z,65
2016-12-05T13:30:52.280Z,65
2016-12-05T13:31:52.262Z,65
2016-12-05T13:32:52.249Z,65
2016-12-05T13:33:52.562Z,65
2016-12-05T13:34:52.533Z,65
2016-12-05T13:35:52.197Z,65
2016-12-05T13:36:52.180Z,65
2016-12-05T13:37:52.172Z,65
2016-12-05T13:38:52.150Z,65
2016-12-05T13:39:52.140Z,60
2016-12-05T13:40:52.119Z,60
2016-12-05T13:41:52.102Z,60
2016-12-05T13:42:52.087Z,60
2016-12-05T13:43:52.070Z,60
2016-12-05T13:44:52.056Z,60
2016-12-05T13:45:52.041Z,60
2016-12-05T13:46:52.025Z,60
2016-12-05T13:47:52.008Z,60
2016-12-05T13:48:52.309Z,60
2016-12-05T13:49:51.976Z,60
2016-12-05T13:50:51.957Z,55
2016-12-05T13:51:52.260Z,55
2016-12-05T13:52:51.938Z,55
2016-12-05T13:53:51.912Z,55
2016-12-05T13:54:51.903Z,55
2016-12-05T13:55:51.880Z,55
2016-12-05T13:56:51.866Z,55
2016-12-05T13:57:51.846Z,55
2016-12-05T13:58:52.151Z,55
2016-12-05T13:59:51.815Z,55
2016-12-05T14:00:51.799Z,55
2016-12-05T14:01:51.809Z,50
2016-12-05T14:02:51.769Z,50
2016-12-05T14:03:51.751Z,50
2016-12-05T14:04:51.731Z,50
2016-12-05T14:05:51.739Z,50
2016-12-05T14:06:51.703Z,50
2016-12-05T14:07:51.688Z,50
2016-12-05T14:08:51.670Z,50
2016-12-05T14:09:51.658Z,50
2016-12-05T14:10:51.637Z,50
2016-12-05T14:11:51.629Z,50
2016-12-05T14:12:51.602Z,50
2016-12-05T14:13:51.586Z,45
2016-12-05T14:14:51.573Z,45
2016-12-05T14:15:51.878Z,45
2016-12-05T14:16:51.545Z,45
2016-12-05T14:17:51.530Z,45
2016-12-05T14:18:51.509Z,45
2016-12-05T14:19:51.495Z,45
2016-12-05T14:20:51.477Z,40
2016-12-05T14:21:51.459Z,40
2016-12-05T14:22:51.439Z,40
2016-12-05T14:23:51.428Z,40
2016-12-05T14:24:51.411Z,40
2016-12-05T14:25:51.394Z,40
2016-12-05T14:26:51.377Z,40
2016-12-05T14:27:51.355Z,40
2016-12-05T14:28:51.368Z,40
2016-12-05T14:29:51.326Z,35